Time,TemperatureF,DewpointF,PressureIn,WindDirection,WindDirectionDegrees,WindSpeedMPH,WindSpeedGustMPH,Humidity,HourlyPrecipIn,Conditions,Clouds,dailyrainin,SoftwareType,DateUTC
2013-07-22 00:15:00,54.5,51.0,29.80,NNE,31,0.0,0.0,88,0.00,,,0.00,Wunderground v.1.12,2013-07-22 04:15:00,
2013-07-22 00:45:00,53.9,50.4,29.79,NNE,31,0.0,0.0,88,0.00,,,0.00,Wunderground v.1.12,2013-07-22 04:45:00,
2013-07-22 01:15:00,53.3,49.8,29.79,NNE,31,0.0,0.0,88,0.00,,,0.00,Wunderground v.1.12,2013-07-22 05:15:00,
2013-07-22 01:45:00,52.9,49.7,29.78,NNE,31,0.0,0.0,89,0.00,,,0.00,Wunderground v.1.12,2013-07-22 05:45:00,
2013-07-22 02:15:00,52.6,49.4,29.78,NNE,32,0.0,0.0,89,0.00,,,0.00,Wunderground v.1.12,2013-07-22 06:15:00,
2013-07-22 02:45:00,52.5,49.7,29.78,NNE,31,0.0,0.0,90,0.00,,,0.00,Wunderground v.1.12,2013-07-22 06:45:00,
2013-07-22 03:15:00,52.0,48.9,29.78,NNE,31,0.0,0.0,89,0.00,,,0.00,Wunderground v.1.12,2013-07-22 07:15:00,
2013-07-22 03:45:00,51.7,48.6,29.78,NNE,32,0.0,0.0,89,0.00,,,0.00,Wunderground v.1.12,2013-07-22 07:45:00,
2013-07-22 04:15:00,51.0,48.2,29.78,NNE,31,0.0,0.0,90,0.00,,,0.00,Wunderground v.1.12,2013-07-22 08:15:00,
2013-07-22 04:45:00,50.3,47.5,29.79,NNE,32,0.0,0.0,90,0.00,,,0.00,Wunderground v.1.12,2013-07-22 08:45:00,
2013-07-22 05:15:00,50.2,47.4,29.78,NNE,32,0.0,0.0,90,0.00,,,0.00,Wunderground v.1.12,2013-07-22 09:15:00,
2013-07-22 05:45:00,49.5,46.7,29.79,NNE,31,0.0,0.0,90,0.00,,,0.00,Wunderground v.1.12,2013-07-22 09:45:00,
2013-07-22 06:15:00,49.8,47.3,29.78,NNE,31,0.0,0.0,91,0.00,,,0.00,Wunderground v.1.12,2013-07-22 10:15:00,
2013-07-22 06:45:00,51.2,48.4,29.79,NNE,32,0.0,0.0,90,0.00,,,0.00,Wunderground v.1.12,2013-07-22 10:45:00,
2013-07-22 07:15:00,53.4,50.8,29.78,NNE,31,0.0,0.0,91,0.00,,,0.00,Wunderground v.1.12,2013-07-22 11:15:00,
2013-07-22 07:45:00,56.3,53.1,29.78,NNE,32,0.0,0.0,89,0.00,,,0.00,Wunderground v.1.12,2013-07-22 11:45:00,
2013-07-22 08:15:00,59.3,54.5,29.78,NNE,32,0.0,0.0,84,0.00,,,0.00,Wunderground v.1.12,2013-07-22 12:15:00,
2013-07-22 08:45:00,62.7,56.4,29.78,NNE,32,0.0,0.0,80,0.00,,,0.00,Wunderground v.1.12,2013-07-22 12:45:00,
2013-07-22 09:15:00,64.4,56.7,29.78,NNE,32,0.0,0.0,76,0.00,,,0.00,Wunderground v.1.12,2013-07-22 13:15:00,
2013-07-22 09:45:00,67.3,55.5,29.77,NNE,32,1.0,1.0,66,0.00,,,0.00,Wunderground v.1.12,2013-07-22 13:45:00,
2013-07-22 10:15:00,68.0,57.0,29.77,NNE,32,0.0,0.0,68,0.00,,,0.00,Wunderground v.1.12,2013-07-22 14:15:00,
2013-07-22 10:45:00,69.0,56.3,29.77,NNE,32,0.0,0.0,64,0.00,,,0.00,Wunderground v.1.12,2013-07-22 14:45:00,
2013-07-22 11:15:00,70.8,55.8,29.76,NNE,32,0.0,0.0,59,0.00,,,0.00,Wunderground v.1.12,2013-07-22 15:15:00,
2013-07-22 11:45:00,73.5,54.3,29.76,East,79,0.0,0.0,51,0.00,,,0.00,Wunderground v.1.12,2013-07-22 15:45:00,
2013-07-22 12:15:00,74.5,58.3,29.74,East,79,1.0,1.0,57,0.00,,,0.00,Wunderground v.1.12,2013-07-22 16:15:00,
2013-07-22 12:45:00,76.0,57.6,29.73,ENE,78,0.0,0.0,53,0.00,,,0.00,Wunderground v.1.12,2013-07-22 16:45:00,
2013-07-22 13:15:00,76.8,57.8,29.73,ENE,77,0.0,0.0,52,0.00,,,0.00,Wunderground v.1.12,2013-07-22 17:15:00,
2013-07-22 13:45:00,75.3,54.3,29.72,ENE,76,0.0,0.0,48,0.00,,,0.00,Wunderground v.1.12,2013-07-22 17:45:00,
2013-07-22 14:15:00,76.9,59.0,29.71,ENE,76,0.0,0.0,54,0.00,,,0.00,Wunderground v.1.12,2013-07-22 18:15:00,
2013-07-22 14:45:00,78.8,58.6,29.70,ENE,76,0.0,0.0,50,0.00,,,0.00,Wunderground v.1.12,2013-07-22 18:45:00,
2013-07-22 15:15:00,78.7,55.0,29.68,ESE,114,0.0,0.0,44,0.00,,,0.00,Wunderground v.1.12,2013-07-22 19:15:00,
2013-07-22 15:45:00,78.4,55.3,29.66,ESE,115,0.0,0.0,45,0.00,,,0.00,Wunderground v.1.12,2013-07-22 19:45:00,
2013-07-22 16:15:00,77.2,56.0,29.65,N/A,-737280,0.0,0.0,48,0.00,,,0.00,Wunderground v.1.12,2013-07-22 20:15:00,
2013-07-22 16:45:00,77.1,55.3,29.64,ESE,115,0.0,0.0,47,0.00,,,0.00,Wunderground v.1.12,2013-07-22 20:45:00,
2013-07-22 17:15:00,75.7,58.4,29.63,ESE,115,0.0,0.0,55,0.00,,,0.00,Wunderground v.1.12,2013-07-22 21:15:00,
2013-07-22 17:45:00,74.7,56.9,29.62,ESE,115,0.0,0.0,54,0.00,,,0.00,Wunderground v.1.12,2013-07-22 21:45:00,
2013-07-22 18:15:00,74.4,56.7,29.61,ESE,115,0.0,0.0,54,0.00,,,0.00,Wunderground v.1.12,2013-07-22 22:15:00,
2013-07-22 18:45:00,72.1,57.4,29.62,ESE,115,0.0,0.0,60,0.00,,,0.00,Wunderground v.1.12,2013-07-22 22:45:00,
2013-07-22 19:15:00,73.1,59.8,29.61,ESE,115,0.0,0.0,63,0.00,,,0.00,Wunderground v.1.12,2013-07-22 23:15:00,
2013-07-22 19:45:00,70.3,57.5,29.60,ESE,115,0.0,0.0,64,0.00,,,0.00,Wunderground v.1.12,2013-07-22 23:45:00,
2013-07-22 20:15:00,67.5,57.4,29.60,ESE,114,0.0,0.0,70,0.00,,,0.00,Wunderground v.1.12,2013-07-23 00:15:00,
2013-07-22 20:45:00,65.7,57.9,29.60,ESE,115,0.0,0.0,76,0.00,,,0.00,Wunderground v.1.12,2013-07-23 00:45:00,
2013-07-22 21:15:00,65.0,58.0,29.59,ESE,115,0.0,0.0,78,0.00,,,0.00,Wunderground v.1.12,2013-07-23 01:15:00,
2013-07-22 21:45:00,64.6,57.6,29.60,ESE,114,0.0,0.0,78,0.00,,,0.00,Wunderground v.1.12,2013-07-23 01:45:00,
2013-07-22 22:15:00,63.9,57.3,29.59,ESE,115,0.0,0.0,79,0.00,,,0.00,Wunderground v.1.12,2013-07-23 02:15:00,
2013-07-22 22:45:00,63.7,56.7,29.58,ESE,114,0.0,0.0,78,0.00,,,0.00,Wunderground v.1.12,2013-07-23 02:45:00,
2013-07-22 23:15:00,63.8,57.5,29.58,ESE,115,0.0,0.0,80,0.00,,,0.00,Wunderground v.1.12,2013-07-23 03:15:00,
2013-07-22 23:45:00,64.0,57.0,29.56,ESE,115,0.0,0.0,78,0.00,,,0.00,Wunderground v.1.12,2013-07-23 03:45:00,